createdAt,value
2023-04-26T00:00:35.458Z,9.06
2023-04-26T00:03:02.441Z,9.01
2023-04-26T00:05:29.777Z,9.00
2023-04-26T00:07:56.593Z,9.05
2023-04-26T00:10:23.265Z,8.96
2023-04-26T00:12:50.029Z,8.91
2023-04-26T00:15:16.717Z,8.94
2023-04-26T00:17:44.135Z,8.94
2023-04-26T00:20:13.062Z,8.97
2023-04-26T00:22:40.117Z,8.94
2023-04-26T00:25:07.005Z,8.96
2023-04-26T00:27:33.606Z,8.95
2023-04-26T00:30:00.250Z,8.91
2023-04-26T00:32:27.009Z,8.86
2023-04-26T00:34:53.706Z,8.88
2023-04-26T00:37:21.480Z,8.84
2023-04-26T00:39:48.204Z,8.83
2023-04-26T00:42:14.970Z,8.81
2023-04-26T00:44:41.585Z,8.75
2023-04-26T00:47:08.241Z,8.79
2023-04-26T00:49:34.941Z,8.83
2023-04-26T00:52:02.032Z,8.80
2023-04-26T00:54:29.030Z,8.83
2023-04-26T00:56:55.851Z,8.80
2023-04-26T00:59:22.907Z,8.77
2023-04-26T01:01:49.708Z,8.73
2023-04-26T01:04:16.975Z,8.71
2023-04-26T01:06:44.459Z,8.70
2023-04-26T01:09:14.860Z,8.65
2023-04-26T01:11:43.368Z,8.61
2023-04-26T01:14:11.029Z,8.57
2023-04-26T01:16:38.607Z,8.50
2023-04-26T01:19:13.017Z,8.46
2023-04-26T01:21:40.724Z,8.38
2023-04-26T01:24:09.398Z,8.37
2023-04-26T01:26:37.060Z,8.32
2023-04-26T01:29:17.051Z,8.27
2023-04-26T01:31:44.041Z,8.15
2023-04-26T01:34:10.975Z,8.16
2023-04-26T01:36:37.956Z,8.17
2023-04-26T01:39:04.948Z,8.14
2023-04-26T01:41:32.890Z,8.05
2023-04-26T01:43:59.886Z,8.04
2023-04-26T01:46:26.837Z,8.02
2023-04-26T01:48:53.698Z,8.02
2023-04-26T01:51:20.500Z,7.92
2023-04-26T01:53:47.233Z,7.94
2023-04-26T01:56:13.947Z,7.96
2023-04-26T01:58:40.552Z,7.98
2023-04-26T02:01:08.658Z,7.88
2023-04-26T02:03:36.171Z,7.89
2023-04-26T02:06:03.430Z,7.99
2023-04-26T02:08:30.154Z,7.97
2023-04-26T02:10:57.159Z,7.83
2023-04-26T02:13:24.000Z,7.88
2023-04-26T02:15:51.597Z,7.93
2023-04-26T02:18:21.886Z,7.98
2023-04-26T02:20:48.945Z,7.89
2023-04-26T02:23:15.931Z,7.74
2023-04-26T02:25:45.877Z,7.71
2023-04-26T02:28:12.588Z,7.85
2023-04-26T02:30:39.346Z,7.86
2023-04-26T02:33:06.055Z,7.73
2023-04-26T02:35:32.814Z,7.75
2023-04-26T02:37:59.485Z,7.77
2023-04-26T02:40:26.097Z,7.78
2023-04-26T02:42:52.845Z,7.69
2023-04-26T02:45:19.526Z,7.70
2023-04-26T02:47:46.269Z,7.69
2023-04-26T02:50:13.011Z,7.71
2023-04-26T02:52:39.588Z,7.76
2023-04-26T02:55:08.709Z,7.72
2023-04-26T02:57:35.425Z,7.66
2023-04-26T03:00:02.300Z,7.51
2023-04-26T03:02:29.158Z,7.56
2023-04-26T03:04:56.207Z,7.62
2023-04-26T03:07:23.116Z,7.53
2023-04-26T03:09:49.781Z,7.40
2023-04-26T03:12:16.643Z,7.29
2023-04-26T03:14:43.364Z,7.46
2023-04-26T03:17:10.064Z,7.24
2023-04-26T03:19:36.738Z,7.23
2023-04-26T03:22:03.378Z,7.43
2023-04-26T03:24:30.848Z,7.38
2023-04-26T03:26:58.027Z,7.36
2023-04-26T03:29:24.600Z,7.29
2023-04-26T03:31:51.364Z,7.21
2023-04-26T03:34:18.045Z,7.16
2023-04-26T03:36:44.704Z,7.04
2023-04-26T03:39:11.600Z,7.01
2023-04-26T03:41:40.454Z,7.03
2023-04-26T03:44:07.295Z,7.03
2023-04-26T03:46:43.168Z,7.09
2023-04-26T03:49:09.653Z,7.25
2023-04-26T03:51:36.310Z,-144.75
2023-04-26T03:54:02.899Z,7.40
2023-04-26T03:56:44.268Z,-144.75
2023-04-26T03:59:10.923Z,7.12
2023-04-26T04:01:37.984Z,6.82
2023-04-26T04:04:04.925Z,7.04
2023-04-26T04:06:32.953Z,6.91
2023-04-26T04:09:31.781Z,6.73
2023-04-26T04:11:56.603Z,6.87
2023-04-26T04:14:23.082Z,6.78
2023-04-26T04:16:49.557Z,6.76
2023-04-26T04:19:16.549Z,6.79
2023-04-26T04:21:43.406Z,6.85
2023-04-26T04:24:35.358Z,6.96
2023-04-26T04:27:06.367Z,7.03
2023-04-26T04:29:33.018Z,6.99
2023-04-26T04:32:02.232Z,6.96
2023-04-26T04:34:28.947Z,7.07
2023-04-26T04:36:55.472Z,7.02
2023-04-26T04:39:21.977Z,7.03
2023-04-26T04:41:52.017Z,7.04
2023-04-26T04:44:18.630Z,7.00
2023-04-26T04:46:45.225Z,6.99
2023-04-26T04:49:12.722Z,7.02
2023-04-26T04:51:39.308Z,7.02
2023-04-26T04:54:11.948Z,6.97
2023-04-26T04:56:38.572Z,7.03
2023-04-26T04:59:05.162Z,6.92
2023-04-26T05:01:33.175Z,6.79
2023-04-26T05:04:00.265Z,6.86
2023-04-26T05:06:27.869Z,6.91
2023-04-26T05:08:55.177Z,7.05
2023-04-26T05:11:21.911Z,6.87
2023-04-26T05:13:50.915Z,7.08
2023-04-26T05:16:20.861Z,6.98
2023-04-26T05:18:56.497Z,7.12
2023-04-26T05:21:23.699Z,7.02
2023-04-26T05:23:50.525Z,7.04
2023-04-26T05:26:17.466Z,7.01
2023-04-26T05:28:44.074Z,7.06
2023-04-26T05:31:11.645Z,7.13
2023-04-26T05:33:38.560Z,7.31
2023-04-26T05:36:05.419Z,7.26
2023-04-26T05:38:32.248Z,7.23
2023-04-26T05:41:00.929Z,7.34
2023-04-26T05:43:27.543Z,7.31
2023-04-26T05:45:54.519Z,7.31
2023-04-26T05:48:21.712Z,7.29
2023-04-26T05:50:48.753Z,7.33
2023-04-26T05:53:15.617Z,7.34
2023-04-26T05:55:42.676Z,7.35
2023-04-26T05:58:12.389Z,7.29
2023-04-26T06:00:41.644Z,7.32
2023-04-26T06:03:08.750Z,7.38
2023-04-26T06:05:36.574Z,7.26
2023-04-26T06:08:03.151Z,7.22
2023-04-26T06:10:29.692Z,7.20
2023-04-26T06:12:56.375Z,7.15
2023-04-26T06:15:22.995Z,7.11
2023-04-26T06:17:49.505Z,7.05
2023-04-26T06:20:16.380Z,7.05
2023-04-26T06:22:43.413Z,7.09
2023-04-26T06:25:10.145Z,7.02
2023-04-26T06:27:36.758Z,7.07
2023-04-26T06:30:03.594Z,7.04
2023-04-26T06:32:30.659Z,7.10
2023-04-26T06:34:57.194Z,7.11
2023-04-26T06:37:23.781Z,6.95
2023-04-26T06:39:50.575Z,7.12
2023-04-26T06:42:17.080Z,7.11
2023-04-26T06:44:43.668Z,7.21
2023-04-26T06:47:11.330Z,7.17
2023-04-26T06:49:38.198Z,7.17
2023-04-26T06:52:07.761Z,7.13
2023-04-26T06:54:39.928Z,7.16
2023-04-26T06:57:09.370Z,7.26
2023-04-26T06:59:35.914Z,7.22
2023-04-26T07:02:09.158Z,7.17
2023-04-26T07:04:39.879Z,7.18
2023-04-26T07:07:06.622Z,7.18
2023-04-26T07:09:33.696Z,7.13
2023-04-26T07:12:00.345Z,7.16
2023-04-26T07:14:26.881Z,7.15
2023-04-26T07:16:53.529Z,7.18
2023-04-26T07:19:22.358Z,7.18
2023-04-26T07:21:48.853Z,7.20
2023-04-26T07:24:15.414Z,7.36
2023-04-26T07:26:42.055Z,7.36
2023-04-26T07:29:08.581Z,7.32
2023-04-26T07:31:35.881Z,7.41
2023-04-26T07:34:02.370Z,7.49
2023-04-26T07:36:28.977Z,7.52
2023-04-26T07:38:55.684Z,7.50
2023-04-26T07:41:22.446Z,7.46
2023-04-26T07:43:54.102Z,7.32
2023-04-26T07:46:21.128Z,7.24
2023-04-26T07:48:47.799Z,7.18
2023-04-26T07:51:14.401Z,7.15
2023-04-26T07:53:41.708Z,7.28
2023-04-26T07:56:09.319Z,7.44
2023-04-26T07:58:37.352Z,7.44
2023-04-26T08:01:04.352Z,7.46
2023-04-26T08:03:31.495Z,7.51
2023-04-26T08:06:02.150Z,7.57
2023-04-26T08:08:29.200Z,7.49
2023-04-26T08:10:56.164Z,7.41
2023-04-26T08:13:23.226Z,7.55
2023-04-26T08:15:49.854Z,-144.75
2023-04-26T08:18:16.579Z,-144.75
2023-04-26T08:20:45.739Z,-144.75
2023-04-26T08:23:12.728Z,-144.75
2023-04-26T08:25:39.425Z,-144.75
2023-04-26T08:28:08.095Z,-144.75
2023-04-26T08:30:35.085Z,-144.75
2023-04-26T08:33:01.853Z,-144.75
2023-04-26T08:35:28.583Z,-144.75
2023-04-26T08:37:55.262Z,-144.75
2023-04-26T08:42:54.893Z,7.81
2023-04-26T08:45:22.006Z,7.72
2023-04-26T08:47:50.510Z,7.76
2023-04-26T08:50:22.273Z,7.83
2023-04-26T08:52:51.711Z,7.86
2023-04-26T08:55:22.680Z,7.83
2023-04-26T08:57:52.077Z,7.82
2023-04-26T09:00:19.803Z,7.92
2023-04-26T09:02:49.848Z,8.04
2023-04-26T09:05:17.085Z,7.97
2023-04-26T09:07:47.971Z,8.20
2023-04-26T09:10:22.348Z,8.34
2023-04-26T09:12:53.636Z,8.51
2023-04-26T09:15:23.867Z,8.30
2023-04-26T09:17:51.979Z,8.11
2023-04-26T09:20:22.350Z,8.01
2023-04-26T09:22:51.677Z,7.92
2023-04-26T09:25:26.461Z,7.85
2023-04-26T09:27:53.088Z,7.69
2023-04-26T09:30:21.009Z,7.64
2023-04-26T09:32:51.949Z,7.67
2023-04-26T09:35:23.080Z,7.60
2023-04-26T09:38:11.033Z,7.58
2023-04-26T09:40:50.500Z,7.77
2023-04-26T09:43:19.533Z,7.75
2023-04-26T09:45:50.968Z,7.75
2023-04-26T09:48:18.025Z,7.76
2023-04-26T09:50:48.563Z,7.76
2023-04-26T09:53:27.733Z,7.79
2023-04-26T09:55:56.248Z,7.75
2023-04-26T09:58:25.971Z,7.96
2023-04-26T10:00:53.057Z,8.18
2023-04-26T10:03:21.145Z,8.25
2023-04-26T10:05:48.197Z,8.31
2023-04-26T10:08:17.902Z,8.31
2023-04-26T10:10:46.066Z,8.66
2023-04-26T10:13:13.961Z,8.71
2023-04-26T10:15:42.092Z,8.69
2023-04-26T10:18:09.132Z,8.84
2023-04-26T10:20:42.415Z,9.00
2023-04-26T10:23:20.228Z,8.94
2023-04-26T10:25:47.146Z,9.37
2023-04-26T10:28:13.984Z,9.24
2023-04-26T10:31:00.497Z,9.09
2023-04-26T10:33:27.541Z,8.95
2023-04-26T10:36:13.444Z,8.88
2023-04-26T10:39:18.750Z,8.98
2023-04-26T10:41:45.364Z,9.13
2023-04-26T10:44:39.092Z,9.18
2023-04-26T10:47:21.676Z,9.15
2023-04-26T10:49:48.698Z,9.62
2023-04-26T10:52:19.032Z,9.78
2023-04-26T10:54:58.530Z,9.86
2023-04-26T10:57:54.390Z,9.54
2023-04-26T11:00:31.946Z,9.27
2023-04-26T11:03:04.285Z,9.23
2023-04-26T11:05:34.808Z,9.24
2023-04-26T11:08:20.631Z,9.38
2023-04-26T11:10:52.779Z,9.47
2023-04-26T11:13:20.252Z,9.91
2023-04-26T11:15:49.142Z,10.01
2023-04-26T11:18:20.159Z,9.86
2023-04-26T11:20:47.218Z,9.89
2023-04-26T11:23:14.198Z,10.19
2023-04-26T11:25:41.396Z,9.92
2023-04-26T11:28:08.049Z,9.73
2023-04-26T11:30:34.844Z,9.70
2023-04-26T11:33:04.173Z,9.15
2023-04-26T11:35:39.019Z,8.82
2023-04-26T11:38:05.880Z,9.25
2023-04-26T11:40:33.594Z,9.49
2023-04-26T11:43:13.583Z,9.82
2023-04-26T11:45:40.316Z,10.11
2023-04-26T11:48:10.559Z,10.34
2023-04-26T11:50:38.730Z,10.59
2023-04-26T11:53:07.156Z,10.67
2023-04-26T11:55:35.282Z,10.46
2023-04-26T11:58:10.055Z,10.12
2023-04-26T12:00:36.804Z,10.16
2023-04-26T12:03:12.660Z,10.20
2023-04-26T12:05:39.669Z,10.09
2023-04-26T12:08:06.525Z,10.23
2023-04-26T12:10:36.662Z,10.13
2023-04-26T12:13:03.350Z,10.16
2023-04-26T12:15:36.003Z,9.99
2023-04-26T12:18:11.595Z,9.89
2023-04-26T12:20:40.784Z,9.79
2023-04-26T12:23:09.502Z,9.84
2023-04-26T12:26:02.110Z,9.71
2023-04-26T12:28:29.043Z,9.82
2023-04-26T12:30:56.224Z,9.73
2023-04-26T12:33:26.102Z,9.86
2023-04-26T12:35:54.084Z,9.80
2023-04-26T12:38:21.582Z,9.76
2023-04-26T12:40:50.282Z,9.69
2023-04-26T12:43:17.139Z,9.78
2023-04-26T12:45:44.463Z,9.73
2023-04-26T12:48:11.916Z,9.69
2023-04-26T12:50:38.794Z,9.64
2023-04-26T12:53:05.553Z,9.54
2023-04-26T12:55:33.144Z,9.52
2023-04-26T12:57:59.993Z,9.81
2023-04-26T13:00:27.137Z,9.53
2023-04-26T13:02:53.992Z,9.42
2023-04-26T13:05:21.245Z,9.40
2023-04-26T13:07:48.006Z,9.30
2023-04-26T13:10:14.825Z,9.14
2023-04-26T13:12:41.780Z,9.01
2023-04-26T13:15:09.376Z,8.86
2023-04-26T13:17:39.213Z,8.78
2023-04-26T13:20:07.147Z,8.70
2023-04-26T13:22:34.808Z,8.61
2023-04-26T13:25:01.725Z,8.56
2023-04-26T13:27:31.136Z,8.53
2023-04-26T13:29:58.638Z,8.70
2023-04-26T13:32:29.202Z,8.80
2023-04-26T13:34:56.976Z,8.97
2023-04-26T13:37:24.005Z,9.15
2023-04-26T13:39:50.814Z,9.45
2023-04-26T13:42:20.297Z,9.68
2023-04-26T13:44:49.475Z,9.70
2023-04-26T13:47:19.722Z,9.57
2023-04-26T13:49:46.448Z,9.35
2023-04-26T13:52:14.445Z,9.23
2023-04-26T13:54:43.710Z,9.09
2023-04-26T13:57:13.252Z,9.07
2023-04-26T13:59:40.682Z,9.07
2023-04-26T14:02:12.765Z,9.15
2023-04-26T14:04:43.156Z,9.32
2023-04-26T14:07:15.241Z,9.30
2023-04-26T14:09:42.147Z,9.13
2023-04-26T14:12:14.080Z,9.10
2023-04-26T14:14:40.911Z,9.06
2023-04-26T14:17:07.643Z,9.24
2023-04-26T14:19:37.221Z,9.31
2023-04-26T14:22:04.179Z,9.33
2023-04-26T14:24:31.022Z,9.40
2023-04-26T14:26:58.489Z,9.35
2023-04-26T14:29:27.125Z,9.36
2023-04-26T14:31:53.883Z,9.13
2023-04-26T14:34:39.170Z,9.43
2023-04-26T14:37:12.438Z,9.58
2023-04-26T14:39:45.131Z,9.55
2023-04-26T14:42:14.956Z,9.62
2023-04-26T14:44:42.432Z,9.61
2023-04-26T14:47:13.725Z,9.60
2023-04-26T14:49:40.408Z,9.80
2023-04-26T14:52:07.001Z,9.81
2023-04-26T14:54:38.609Z,9.81
2023-04-26T14:57:05.341Z,9.73
2023-04-26T14:59:33.155Z,9.54
2023-04-26T15:02:00.189Z,9.37
2023-04-26T15:04:27.374Z,9.38
2023-04-26T15:06:54.198Z,9.10
2023-04-26T15:09:20.930Z,9.12
2023-04-26T15:11:47.560Z,9.07
2023-04-26T15:14:14.837Z,9.16
2023-04-26T15:16:42.070Z,9.09
2023-04-26T15:19:08.851Z,9.12
2023-04-26T15:21:35.537Z,9.11
2023-04-26T15:24:02.518Z,9.07
2023-04-26T15:26:31.078Z,9.01
2023-04-26T15:28:57.880Z,8.93
2023-04-26T15:31:24.579Z,8.91
2023-04-26T15:33:51.270Z,8.89
2023-04-26T15:36:20.302Z,8.89
2023-04-26T15:38:48.824Z,8.86
2023-04-26T15:41:17.904Z,8.89
2023-04-26T15:43:44.556Z,8.94
2023-04-26T15:46:14.528Z,9.12
2023-04-26T15:48:41.302Z,9.18
2023-04-26T15:51:07.938Z,9.21
2023-04-26T15:53:34.745Z,9.16
2023-04-26T15:56:01.476Z,9.12
2023-04-26T15:58:28.087Z,9.19
2023-04-26T16:00:54.697Z,9.23
2023-04-26T16:03:21.690Z,9.25
2023-04-26T16:05:48.525Z,9.15
2023-04-26T16:08:24.356Z,9.07
2023-04-26T16:11:00.685Z,9.10
2023-04-26T16:13:28.262Z,9.01
2023-04-26T16:15:55.932Z,9.06
2023-04-26T16:18:23.029Z,9.02
2023-04-26T16:20:52.625Z,8.97
2023-04-26T16:23:23.571Z,8.96
2023-04-26T16:25:50.153Z,8.93
2023-04-26T16:28:16.723Z,8.90
2023-04-26T16:30:45.583Z,8.89
2023-04-26T16:33:14.961Z,8.82
2023-04-26T16:35:43.847Z,8.69
2023-04-26T16:38:12.036Z,8.62
2023-04-26T16:40:41.558Z,8.61
2023-04-26T16:43:09.246Z,8.60
2023-04-26T16:45:35.995Z,8.62
2023-04-26T16:48:02.678Z,8.52
2023-04-26T16:50:29.632Z,8.50
2023-04-26T16:52:56.290Z,8.45
2023-04-26T16:55:22.980Z,8.39
2023-04-26T16:57:49.662Z,8.37
2023-04-26T17:00:16.881Z,8.35
2023-04-26T17:02:43.692Z,8.31
2023-04-26T17:05:13.994Z,8.36
2023-04-26T17:07:46.029Z,8.37
2023-04-26T17:10:12.617Z,8.35
2023-04-26T17:12:39.224Z,8.32
2023-04-26T17:15:07.114Z,8.27
2023-04-26T17:17:33.826Z,8.26
2023-04-26T17:20:06.440Z,8.30
2023-04-26T17:22:34.269Z,8.28
2023-04-26T17:25:01.192Z,8.31
2023-04-26T17:27:28.859Z,8.33
2023-04-26T17:29:56.567Z,8.30
2023-04-26T17:32:23.159Z,8.27
2023-04-26T17:34:49.797Z,8.27
2023-04-26T17:37:16.450Z,8.27
2023-04-26T17:39:43.030Z,8.24
2023-04-26T17:42:09.668Z,8.22
2023-04-26T17:44:36.344Z,8.06
2023-04-26T17:47:03.002Z,8.09
2023-04-26T17:49:29.771Z,8.10
2023-04-26T17:51:56.370Z,8.02
2023-04-26T17:54:23.071Z,7.97
2023-04-26T17:56:49.770Z,7.96
2023-04-26T17:59:16.422Z,8.03
2023-04-26T18:01:43.235Z,7.96
2023-04-26T18:04:10.035Z,7.99
2023-04-26T18:06:38.025Z,8.05
2023-04-26T18:09:05.086Z,8.19
2023-04-26T18:11:32.238Z,8.22
2023-04-26T18:13:58.819Z,8.22
2023-04-26T18:16:25.622Z,8.18
2023-04-26T18:18:52.289Z,8.13
2023-04-26T18:21:19.142Z,8.18
2023-04-26T18:23:47.169Z,8.13
2023-04-26T18:26:13.909Z,8.20
2023-04-26T18:28:40.829Z,8.21
2023-04-26T18:31:08.096Z,8.15
2023-04-26T18:33:34.862Z,8.12
2023-04-26T18:36:01.589Z,8.14
2023-04-26T18:38:29.198Z,8.13
2023-04-26T18:40:55.907Z,8.11
2023-04-26T18:43:22.640Z,8.08
2023-04-26T18:45:49.525Z,8.10
2023-04-26T18:48:16.374Z,8.06
2023-04-26T18:50:49.977Z,8.13
2023-04-26T18:53:16.870Z,8.01
2023-04-26T18:55:44.235Z,8.03
2023-04-26T18:58:11.500Z,7.95
2023-04-26T19:00:38.243Z,7.97
2023-04-26T19:03:05.420Z,7.97
2023-04-26T19:05:32.216Z,7.99
2023-04-26T19:07:58.894Z,7.90
2023-04-26T19:10:28.218Z,7.82
2023-04-26T19:12:54.957Z,7.83
2023-04-26T19:15:22.105Z,7.82
2023-04-26T19:17:50.474Z,7.79
2023-04-26T19:20:23.382Z,7.89
2023-04-26T19:22:50.061Z,7.93
2023-04-26T19:25:20.532Z,7.87
2023-04-26T19:27:47.197Z,7.75
2023-04-26T19:30:13.965Z,7.86
2023-04-26T19:32:40.737Z,7.73
2023-04-26T19:35:10.432Z,7.73
2023-04-26T19:37:37.071Z,7.70
2023-04-26T19:40:13.210Z,7.63
2023-04-26T19:42:39.822Z,7.56
2023-04-26T19:45:07.054Z,7.66
2023-04-26T19:47:33.865Z,7.63
2023-04-26T19:50:00.574Z,7.55
2023-04-26T19:52:27.242Z,7.50
2023-04-26T19:54:54.467Z,7.40
2023-04-26T19:57:22.133Z,7.34
2023-04-26T19:59:48.762Z,7.27
2023-04-26T20:02:15.563Z,7.18
2023-04-26T20:04:42.899Z,7.09
2023-04-26T20:07:10.035Z,7.06
2023-04-26T20:09:37.521Z,6.98
2023-04-26T20:12:04.406Z,6.96
2023-04-26T20:14:31.090Z,6.91
2023-04-26T20:17:02.410Z,6.94
2023-04-26T20:19:29.503Z,6.89
2023-04-26T20:21:58.507Z,6.93
2023-04-26T20:24:27.919Z,6.84
2023-04-26T20:26:56.181Z,6.72
2023-04-26T20:29:22.904Z,6.70
2023-04-26T20:31:50.006Z,6.66
2023-04-26T20:34:17.034Z,6.61
2023-04-26T20:36:43.641Z,6.61
2023-04-26T20:39:10.723Z,6.59
2023-04-26T20:41:37.613Z,6.56
2023-04-26T20:44:06.264Z,6.42
2023-04-26T20:46:35.171Z,6.34
2023-04-26T20:49:02.747Z,6.22
2023-04-26T20:51:29.569Z,6.13
2023-04-26T20:53:56.421Z,6.17
2023-04-26T20:56:23.091Z,6.28
2023-04-26T20:58:49.762Z,6.23
2023-04-26T21:01:16.885Z,6.04
2023-04-26T21:03:43.868Z,5.90
2023-04-26T21:06:10.575Z,5.79
2023-04-26T21:08:37.252Z,5.64
2023-04-26T21:11:03.874Z,5.70
2023-04-26T21:13:30.798Z,5.72
2023-04-26T21:15:57.334Z,5.72
2023-04-26T21:18:23.847Z,5.81
2023-04-26T21:20:50.418Z,5.72
2023-04-26T21:23:16.935Z,5.59
2023-04-26T21:25:47.153Z,5.50
2023-04-26T21:28:14.008Z,5.42
2023-04-26T21:30:40.818Z,5.39
2023-04-26T21:33:07.626Z,5.40
2023-04-26T21:35:34.206Z,5.42
2023-04-26T21:38:00.788Z,5.41
2023-04-26T21:40:27.343Z,5.38
2023-04-26T21:43:04.460Z,5.38
2023-04-26T21:45:31.678Z,5.36
2023-04-26T21:47:58.157Z,5.39
2023-04-26T21:50:25.165Z,5.48
2023-04-26T21:52:51.608Z,5.45
2023-04-26T21:55:18.198Z,5.49
2023-04-26T21:57:44.844Z,5.59
2023-04-26T22:00:12.789Z,5.51
2023-04-26T22:02:39.544Z,5.39
2023-04-26T22:05:07.417Z,5.38
2023-04-26T22:07:34.164Z,5.36
2023-04-26T22:10:01.193Z,5.23
2023-04-26T22:12:27.993Z,5.10
2023-04-26T22:14:55.398Z,5.10
2023-04-26T22:17:22.098Z,5.02
2023-04-26T22:19:49.020Z,5.01
2023-04-26T22:22:16.209Z,4.84
2023-04-26T22:24:43.050Z,4.74
2023-04-26T22:27:09.695Z,4.69
2023-04-26T22:29:36.326Z,4.65
2023-04-26T22:32:03.063Z,4.54
2023-04-26T22:34:29.751Z,4.48
2023-04-26T22:37:01.194Z,4.45
2023-04-26T22:39:33.279Z,4.38
2023-04-26T22:41:59.848Z,4.41
2023-04-26T22:44:26.479Z,4.39
2023-04-26T22:46:55.308Z,4.33
2023-04-26T22:49:21.920Z,4.27
2023-04-26T22:52:01.243Z,4.31
2023-04-26T22:54:28.779Z,4.30
2023-04-26T22:56:55.448Z,4.20
2023-04-26T22:59:22.062Z,4.19
2023-04-26T23:01:48.782Z,4.16
2023-04-26T23:04:18.415Z,4.09
2023-04-26T23:06:45.069Z,4.01
2023-04-26T23:09:12.649Z,4.06
2023-04-26T23:11:39.525Z,4.10
2023-04-26T23:14:07.267Z,4.09
2023-04-26T23:16:33.989Z,4.10
2023-04-26T23:19:00.775Z,3.99
2023-04-26T23:21:28.185Z,3.91
2023-04-26T23:23:54.685Z,3.90
2023-04-26T23:26:21.222Z,3.87
2023-04-26T23:28:47.696Z,3.83
2023-04-26T23:31:14.306Z,3.82
2023-04-26T23:33:40.832Z,3.83
2023-04-26T23:36:08.137Z,3.79
2023-04-26T23:38:37.368Z,3.75
2023-04-26T23:41:03.980Z,3.72
2023-04-26T23:43:30.472Z,3.72
2023-04-26T23:45:57.096Z,3.66
2023-04-26T23:48:23.591Z,3.65
2023-04-26T23:50:50.129Z,3.66
2023-04-26T23:53:16.681Z,3.65
2023-04-26T23:55:43.206Z,3.66
2023-04-26T23:58:09.763Z,3.59
